createdAt,value
2023-04-18T00:00:58.305Z,112.86
2023-04-18T00:02:01.589Z,133.34
2023-04-18T00:03:03.904Z,158.94
2023-04-18T00:04:07.177Z,115.42
2023-04-18T00:05:10.508Z,107.74
2023-04-18T00:06:13.770Z,74.46
2023-04-18T00:07:17.056Z,120.54
2023-04-18T00:08:20.362Z,89.82
2023-04-18T00:09:23.716Z,112.86
2023-04-18T00:10:26.003Z,92.38
2023-04-18T00:11:28.268Z,112.86
2023-04-18T00:12:31.589Z,141.02
2023-04-18T00:13:34.872Z,133.34
2023-04-18T00:14:38.124Z,148.7
2023-04-18T00:15:41.466Z,153.82
2023-04-18T00:16:44.722Z,202.46
2023-04-18T00:17:48.015Z,187.1
2023-04-18T00:18:51.331Z,199.9
2023-04-18T00:19:54.621Z,169.18
2023-04-18T00:20:57.884Z,248.54
2023-04-18T00:22:01.190Z,199.9
2023-04-18T00:23:04.481Z,256.22
2023-04-18T00:24:07.767Z,240.86
2023-04-18T00:25:10.075Z,215.26
2023-04-18T00:26:13.379Z,228.06
2023-04-18T00:27:16.664Z,245.98
2023-04-18T00:28:19.960Z,253.66
2023-04-18T00:29:23.247Z,220.38
2023-04-18T00:30:26.525Z,238.3
2023-04-18T00:31:29.842Z,233.18
2023-04-18T00:32:32.145Z,194.78
2023-04-18T00:33:34.452Z,215.26
2023-04-18T00:34:36.756Z,184.54
2023-04-18T00:35:39.094Z,164.06
2023-04-18T00:36:41.395Z,235.74
2023-04-18T00:37:43.727Z,238.3
2023-04-18T00:38:46.983Z,215.26
2023-04-18T00:39:49.295Z,240.86
2023-04-18T00:40:52.582Z,166.62
2023-04-18T00:41:56.241Z,169.18
2023-04-18T00:42:59.538Z,187.1
2023-04-18T00:44:02.851Z,141.02
2023-04-18T00:45:06.137Z,153.82
2023-04-18T00:46:09.418Z,176.86
2023-04-18T00:47:12.723Z,105.18
2023-04-18T00:48:16.004Z,181.98
2023-04-18T00:49:19.298Z,148.7
2023-04-18T00:50:22.577Z,212.7
2023-04-18T00:51:25.870Z,176.86
2023-04-18T00:52:29.165Z,179.42
2023-04-18T00:53:31.477Z,187.1
2023-04-18T00:54:34.769Z,158.94
2023-04-18T00:55:38.060Z,97.5
2023-04-18T00:56:41.352Z,89.82
2023-04-18T00:57:44.644Z,94.94
2023-04-18T00:58:46.964Z,166.62
2023-04-18T00:59:49.262Z,102.62
2023-04-18T01:00:52.550Z,233.18
2023-04-18T01:01:55.852Z,192.22
2023-04-18T01:02:59.453Z,220.38
2023-04-18T01:04:02.726Z,284.38
2023-04-18T01:05:06.030Z,312.54
2023-04-18T01:06:09.328Z,266.46
2023-04-18T01:07:12.615Z,-317.22
2023-04-18T01:08:15.921Z,-304.42
2023-04-18T01:09:19.204Z,304.86
2023-04-18T01:10:22.473Z,-301.86
2023-04-18T01:11:25.784Z,297.18
2023-04-18T01:12:29.065Z,-324.9
2023-04-18T01:13:31.376Z,289.5
2023-04-18T01:14:34.670Z,302.3
2023-04-18T01:15:37.959Z,294.62
2023-04-18T01:16:41.252Z,312.54
2023-04-18T01:17:44.564Z,325.34
2023-04-18T01:18:47.836Z,315.1
2023-04-18T01:19:51.127Z,-324.9
2023-04-18T01:20:54.435Z,-324.9
2023-04-18T01:21:56.749Z,294.62
2023-04-18T01:22:59.052Z,294.62
2023-04-18T01:24:01.373Z,317.66
2023-04-18T01:25:03.674Z,289.5
2023-04-18T01:26:05.978Z,284.38
2023-04-18T01:27:08.307Z,299.74
2023-04-18T01:28:11.569Z,286.94
2023-04-18T01:29:14.863Z,258.78
2023-04-18T01:30:18.166Z,228.06
2023-04-18T01:31:21.457Z,215.26
2023-04-18T01:32:24.725Z,230.62
2023-04-18T01:33:28.029Z,205.02
2023-04-18T01:34:31.315Z,158.94
2023-04-18T01:35:34.605Z,197.34
2023-04-18T01:36:37.902Z,189.66
2023-04-18T01:37:41.194Z,181.98
2023-04-18T01:38:44.492Z,169.18
2023-04-18T01:39:47.791Z,179.42
2023-04-18T01:40:50.103Z,194.78
2023-04-18T01:41:53.605Z,169.18
2023-04-18T01:42:56.909Z,179.42
2023-04-18T01:44:00.196Z,194.78
2023-04-18T01:45:03.490Z,189.66
2023-04-18T01:46:06.828Z,171.74
2023-04-18T01:47:10.073Z,174.3
2023-04-18T01:48:12.385Z,197.34
2023-04-18T01:49:14.691Z,199.9
2023-04-18T01:50:17.005Z,225.5
2023-04-18T01:51:19.315Z,240.86
2023-04-18T01:52:22.614Z,235.74
2023-04-18T01:53:25.911Z,245.98
2023-04-18T01:54:29.195Z,238.3
2023-04-18T01:55:32.470Z,245.98
2023-04-18T01:56:35.763Z,261.34
2023-04-18T01:57:39.065Z,279.26
2023-04-18T01:58:42.344Z,289.5
2023-04-18T01:59:45.652Z,284.38
2023-04-18T02:00:48.928Z,309.98
2023-04-18T02:01:52.217Z,276.7
2023-04-18T02:02:55.513Z,263.9
2023-04-18T02:03:58.818Z,325.34
2023-04-18T02:05:01.128Z,294.62
2023-04-18T02:06:04.420Z,292.06
2023-04-18T02:07:07.712Z,271.58
2023-04-18T02:08:11.000Z,294.62
2023-04-18T02:09:14.297Z,266.46
2023-04-18T02:10:17.584Z,271.58
2023-04-18T02:11:20.878Z,289.5
2023-04-18T02:12:23.195Z,0
2023-04-18T02:13:25.498Z,0
2023-04-18T02:14:27.813Z,245.98
2023-04-18T02:15:30.107Z,251.1
2023-04-18T02:16:33.407Z,225.5
2023-04-18T02:17:36.701Z,261.34
2023-04-18T02:18:40.003Z,233.18
2023-04-18T02:19:43.288Z,292.06
2023-04-18T02:20:46.570Z,256.22
2023-04-18T02:21:49.854Z,281.82
2023-04-18T02:22:53.164Z,289.5
2023-04-18T02:23:56.462Z,302.3
2023-04-18T02:25:00.117Z,317.66
2023-04-18T02:26:03.437Z,-317.22
2023-04-18T02:27:06.692Z,-322.34
2023-04-18T02:28:09.986Z,276.7
2023-04-18T02:29:12.301Z,302.3
2023-04-18T02:30:15.582Z,289.5
2023-04-18T02:31:18.868Z,294.62
2023-04-18T02:32:22.168Z,299.74
2023-04-18T02:33:25.454Z,294.62
2023-04-18T02:34:28.742Z,-324.9
2023-04-18T02:35:32.042Z,-314.66
2023-04-18T02:36:34.351Z,317.66
2023-04-18T02:37:36.669Z,304.86
2023-04-18T02:38:38.978Z,276.7
2023-04-18T02:39:41.291Z,261.34
2023-04-18T02:40:44.569Z,243.42
2023-04-18T02:41:47.858Z,225.5
2023-04-18T02:42:51.154Z,222.94
2023-04-18T02:43:54.431Z,220.38
2023-04-18T02:44:57.747Z,222.94
2023-04-18T02:46:01.030Z,220.38
2023-04-18T02:47:04.312Z,235.74
2023-04-18T02:48:07.633Z,235.74
2023-04-18T02:49:10.910Z,253.66
2023-04-18T02:50:14.202Z,238.3
2023-04-18T02:51:17.483Z,245.98
2023-04-18T02:52:20.780Z,238.3
2023-04-18T02:53:23.080Z,253.66
2023-04-18T02:54:26.383Z,248.54
2023-04-18T02:55:29.669Z,251.1
2023-04-18T02:56:32.968Z,240.86
2023-04-18T02:57:36.253Z,243.42
2023-04-18T02:58:39.544Z,274.14
2023-04-18T02:59:42.846Z,294.62
2023-04-18T03:00:45.208Z,297.18
2023-04-18T03:01:47.474Z,294.62
2023-04-18T03:02:49.782Z,281.82
2023-04-18T03:03:52.079Z,286.94
2023-04-18T03:04:55.384Z,292.06
2023-04-18T03:05:58.679Z,-319.78
2023-04-18T03:07:01.968Z,-291.62
2023-04-18T03:08:05.246Z,315.1
2023-04-18T03:09:08.536Z,-291.62
2023-04-18T03:10:11.847Z,325.34
2023-04-18T03:11:15.127Z,307.42
2023-04-18T03:12:18.421Z,-319.78
2023-04-18T03:13:21.729Z,-304.42
2023-04-18T03:14:25.000Z,320.22
2023-04-18T03:15:28.303Z,-314.66
2023-04-18T03:16:31.589Z,-291.62
2023-04-18T03:17:33.894Z,-309.54
2023-04-18T03:18:37.190Z,312.54
2023-04-18T03:19:40.479Z,304.86
2023-04-18T03:20:43.770Z,309.98
2023-04-18T03:21:47.061Z,307.42
2023-04-18T03:22:50.402Z,297.18
2023-04-18T03:23:53.650Z,322.78
2023-04-18T03:24:55.948Z,297.18
2023-04-18T03:25:58.290Z,279.26
2023-04-18T03:27:00.584Z,315.1
2023-04-18T03:28:02.896Z,266.46
2023-04-18T03:29:06.185Z,276.7
2023-04-18T03:30:09.485Z,-322.34
2023-04-18T03:31:12.777Z,299.74
2023-04-18T03:32:16.041Z,320.22
2023-04-18T03:33:19.346Z,274.14
2023-04-18T03:34:22.638Z,279.26
2023-04-18T03:35:25.923Z,286.94
2023-04-18T03:36:29.216Z,269.02
2023-04-18T03:37:32.510Z,269.02
2023-04-18T03:38:35.798Z,263.9
2023-04-18T03:40:42.396Z,304.86
2023-04-18T03:41:44.687Z,292.06
2023-04-18T03:42:47.976Z,302.3
2023-04-18T03:43:51.295Z,299.74
2023-04-18T03:44:54.564Z,299.74
2023-04-18T03:45:57.872Z,302.3
2023-04-18T03:47:01.155Z,297.18
2023-04-18T03:48:04.449Z,279.26
2023-04-18T03:49:07.728Z,279.26
2023-04-18T03:50:10.067Z,292.06
2023-04-18T03:51:12.343Z,307.42
2023-04-18T03:52:14.684Z,307.42
2023-04-18T03:53:16.977Z,307.42
2023-04-18T03:54:20.319Z,315.1
2023-04-18T03:55:23.570Z,-296.74
2023-04-18T03:56:26.854Z,-296.74
2023-04-18T03:57:30.147Z,0
2023-04-18T03:58:33.475Z,-268.58
2023-04-18T03:59:36.734Z,-309.54
2023-04-18T04:00:40.027Z,-296.74
2023-04-18T04:01:43.316Z,-306.98
2023-04-18T04:02:46.623Z,-306.98
2023-04-18T04:03:49.907Z,-291.62
2023-04-18T04:04:53.209Z,-289.06
2023-04-18T04:05:56.493Z,-312.1
2023-04-18T04:08:02.092Z,-306.98
2023-04-18T04:09:05.422Z,294.62
2023-04-18T04:10:08.689Z,253.66
2023-04-18T04:11:11.010Z,228.06
2023-04-18T04:12:14.286Z,240.86
2023-04-18T04:13:17.581Z,210.14
2023-04-18T04:14:20.878Z,0
2023-04-18T04:15:23.186Z,238.3
2023-04-18T04:16:25.488Z,235.74
2023-04-18T04:17:28.777Z,248.54
2023-04-18T04:18:32.080Z,251.1
2023-04-18T04:19:35.361Z,240.86
2023-04-18T04:20:38.649Z,225.5
2023-04-18T04:21:41.946Z,220.38
2023-04-18T04:22:45.249Z,212.7
2023-04-18T04:23:48.550Z,222.94
2023-04-18T04:24:51.818Z,266.46
2023-04-18T04:25:55.118Z,261.34
2023-04-18T04:26:58.418Z,238.3
2023-04-18T04:28:01.696Z,238.3
2023-04-18T04:29:04.998Z,240.86
2023-04-18T04:30:07.302Z,256.22
2023-04-18T04:31:10.592Z,251.1
2023-04-18T04:32:13.890Z,261.34
2023-04-18T04:33:17.196Z,271.58
2023-04-18T04:34:20.482Z,269.02
2023-04-18T04:35:23.745Z,240.86
2023-04-18T04:36:27.043Z,243.42
2023-04-18T04:37:29.365Z,212.7
2023-04-18T04:38:31.664Z,284.38
2023-04-18T04:39:34.966Z,-306.98
2023-04-18T04:40:38.248Z,-317.22
2023-04-18T04:41:41.549Z,-299.3
2023-04-18T04:42:44.834Z,-304.42
2023-04-18T04:43:48.132Z,-266.02
2023-04-18T04:44:51.437Z,-263.46
2023-04-18T04:45:54.842Z,-232.74
2023-04-18T04:46:58.108Z,-225.06
2023-04-18T04:48:01.412Z,-222.5
2023-04-18T04:49:04.705Z,-171.3
2023-04-18T04:50:07.993Z,-148.26
2023-04-18T04:51:11.305Z,-207.14
2023-04-18T04:52:13.621Z,-260.9
2023-04-18T04:53:16.881Z,-212.26
2023-04-18T04:54:20.226Z,-186.66
2023-04-18T04:55:23.455Z,-204.58
2023-04-18T04:56:26.770Z,-204.58
2023-04-18T04:57:30.063Z,-176.42
2023-04-18T04:58:33.367Z,-253.22
2023-04-18T04:59:35.644Z,-184.1
2023-04-18T05:00:37.985Z,-196.9
2023-04-18T05:01:41.255Z,-245.54
2023-04-18T05:02:44.561Z,-253.22
2023-04-18T05:03:47.828Z,-271.14
2023-04-18T05:04:51.125Z,-271.14
2023-04-18T05:05:54.443Z,-242.98
2023-04-18T05:06:58.202Z,-255.78
2023-04-18T05:08:01.495Z,0
2023-04-18T05:09:04.796Z,-230.18
2023-04-18T05:10:08.078Z,-268.58
2023-04-18T05:11:11.368Z,-286.5
2023-04-18T05:12:14.656Z,-271.14
2023-04-18T05:13:17.997Z,-286.5
2023-04-18T05:14:20.247Z,0
2023-04-18T05:15:23.540Z,-255.78
2023-04-18T05:16:26.838Z,-271.14
2023-04-18T05:17:30.132Z,0
2023-04-18T05:18:33.430Z,-273.7
2023-04-18T05:19:36.726Z,0
2023-04-18T05:20:40.014Z,-242.98
2023-04-18T05:21:42.325Z,-235.3
2023-04-18T05:22:44.624Z,-253.22
2023-04-18T05:23:46.934Z,-273.7
2023-04-18T05:24:49.255Z,-268.58
2023-04-18T05:25:51.551Z,-237.86
2023-04-18T05:26:53.876Z,-217.38
2023-04-18T05:28:59.475Z,-196.9
2023-04-18T05:30:01.788Z,-173.86
2023-04-18T05:31:04.097Z,-178.98
2023-04-18T05:32:07.386Z,-189.22
2023-04-18T05:33:10.675Z,-219.94
2023-04-18T05:34:13.959Z,-184.1
2023-04-18T05:35:17.270Z,-191.78
2023-04-18T05:36:20.571Z,-263.46
2023-04-18T05:37:23.834Z,-245.54
2023-04-18T05:38:27.127Z,-268.58
2023-04-18T05:39:30.442Z,-245.54
2023-04-18T05:40:33.705Z,-283.94
2023-04-18T05:41:37.019Z,-283.94
2023-04-18T05:42:40.346Z,-278.82
2023-04-18T05:43:43.598Z,-289.06
2023-04-18T05:44:45.941Z,307.42
2023-04-18T05:45:49.198Z,312.54
2023-04-18T05:46:52.487Z,312.54
2023-04-18T05:47:55.799Z,322.78
2023-04-18T05:48:59.084Z,304.86
2023-04-18T05:50:02.362Z,302.3
2023-04-18T05:51:05.651Z,297.18
2023-04-18T05:52:07.989Z,276.7
2023-04-18T05:53:10.296Z,284.38
2023-04-18T05:54:13.580Z,292.06
2023-04-18T05:55:15.896Z,294.62
2023-04-18T05:56:18.184Z,325.34
2023-04-18T05:57:21.485Z,320.22
2023-04-18T05:58:24.763Z,281.82
2023-04-18T05:59:28.067Z,294.62
2023-04-18T06:00:31.356Z,269.02
2023-04-18T06:01:34.636Z,251.1
2023-04-18T06:02:37.945Z,312.54
2023-04-18T06:03:41.243Z,322.78
2023-04-18T06:04:44.527Z,289.5
2023-04-18T06:05:47.825Z,-312.1
2023-04-18T06:06:51.101Z,-283.94
2023-04-18T06:07:54.413Z,-304.42
2023-04-18T06:08:57.700Z,-296.74
2023-04-18T06:10:01.305Z,-301.86
2023-04-18T06:11:03.613Z,-319.78
2023-04-18T06:12:07.015Z,-322.34
2023-04-18T06:13:10.267Z,-289.06
2023-04-18T06:14:13.589Z,-268.58
2023-04-18T06:15:16.896Z,-266.02
2023-04-18T06:16:20.210Z,-283.94
2023-04-18T06:17:22.379Z,-306.98
2023-04-18T06:18:24.673Z,-322.34
2023-04-18T06:19:26.996Z,-314.66
2023-04-18T06:20:29.342Z,-324.9
2023-04-18T06:21:32.584Z,-299.3
2023-04-18T06:22:35.955Z,-289.06
2023-04-18T06:23:39.249Z,-301.86
2023-04-18T06:24:42.493Z,-304.42
2023-04-18T06:25:45.766Z,322.78
2023-04-18T06:26:49.094Z,-289.06
2023-04-18T06:27:52.359Z,-276.26
2023-04-18T06:28:55.695Z,312.54
2023-04-18T06:29:58.963Z,292.06
2023-04-18T06:31:02.294Z,304.86
2023-04-18T06:32:05.506Z,307.42
2023-04-18T06:33:08.810Z,309.98
2023-04-18T06:34:11.174Z,304.86
2023-04-18T06:35:14.538Z,312.54
2023-04-18T06:36:17.707Z,315.1
2023-04-18T06:37:21.005Z,-327.46
2023-04-18T06:38:24.264Z,299.74
2023-04-18T06:39:27.646Z,294.62
2023-04-18T06:40:30.865Z,269.02
2023-04-18T06:41:33.176Z,274.14
2023-04-18T06:42:35.482Z,299.74
2023-04-18T06:43:37.797Z,289.5
2023-04-18T06:44:40.098Z,276.7
2023-04-18T06:45:43.384Z,307.42
2023-04-18T06:46:46.675Z,294.62
2023-04-18T06:47:49.974Z,251.1
2023-04-18T06:48:53.256Z,299.74
2023-04-18T06:49:56.658Z,-291.62
2023-04-18T06:50:59.929Z,-306.98
2023-04-18T06:52:03.181Z,-255.78
2023-04-18T06:53:06.554Z,-268.58
2023-04-18T06:54:09.794Z,-268.58
2023-04-18T06:55:13.017Z,-255.78
2023-04-18T06:56:16.387Z,-260.9
2023-04-18T06:57:19.684Z,-289.06
2023-04-18T06:58:21.914Z,-299.3
2023-04-18T06:59:25.201Z,-286.5
2023-04-18T07:00:28.564Z,-266.02
2023-04-18T07:01:31.777Z,-271.14
2023-04-18T07:02:35.064Z,-248.1
2023-04-18T07:03:38.450Z,-237.86
2023-04-18T07:04:41.760Z,-250.66
2023-04-18T07:05:44.026Z,-255.78
2023-04-18T07:06:46.312Z,-283.94
2023-04-18T07:07:48.599Z,-299.3
2023-04-18T07:08:50.931Z,-271.14
2023-04-18T07:09:54.233Z,286.94
2023-04-18T07:10:57.478Z,292.06
2023-04-18T07:12:00.814Z,312.54
2023-04-18T07:13:04.076Z,312.54
2023-04-18T07:14:07.374Z,281.82
2023-04-18T07:15:10.644Z,284.38
2023-04-18T07:16:13.971Z,299.74
2023-04-18T07:17:17.264Z,-255.78
2023-04-18T07:18:20.536Z,-199.46
2023-04-18T07:19:23.885Z,-155.94
2023-04-18T07:20:27.301Z,-89.38
2023-04-18T07:21:30.572Z,-120.1
2023-04-18T07:22:32.789Z,-125.22
2023-04-18T07:23:36.035Z,-140.58
2023-04-18T07:24:39.364Z,-166.18
2023-04-18T07:25:42.576Z,-212.26
2023-04-18T07:26:45.880Z,-194.34
2023-04-18T07:27:49.166Z,-168.74
2023-04-18T07:28:52.459Z,-181.54
2023-04-18T07:29:54.836Z,-184.1
2023-04-18T07:30:57.080Z,-199.46
2023-04-18T07:31:59.390Z,-145.7
2023-04-18T07:33:01.705Z,-186.66
2023-04-18T07:34:04.992Z,-217.38
2023-04-18T07:35:08.334Z,-299.3
2023-04-18T07:36:11.581Z,297.18
2023-04-18T07:37:14.871Z,256.22
2023-04-18T07:38:18.168Z,251.1
2023-04-18T07:39:21.500Z,212.7
2023-04-18T07:40:24.853Z,-281.38
2023-04-18T07:41:28.048Z,-130.34
2023-04-18T07:42:30.347Z,-314.66
2023-04-18T07:43:33.653Z,261.34
2023-04-18T07:44:36.943Z,281.82
2023-04-18T07:45:40.216Z,304.86
2023-04-18T07:46:43.642Z,-189.22
2023-04-18T07:47:46.810Z,-79.14
2023-04-18T07:48:50.110Z,-89.38
2023-04-18T07:49:53.382Z,-104.74
2023-04-18T07:50:56.689Z,-40.74
2023-04-18T07:51:59.994Z,-40.74
2023-04-18T07:53:03.371Z,-68.9
2023-04-18T07:54:05.674Z,-104.74
2023-04-18T07:55:07.900Z,-66.34
2023-04-18T07:56:10.304Z,-217.38
2023-04-18T07:57:12.603Z,292.06
2023-04-18T07:58:16.002Z,169.18
2023-04-18T07:59:19.112Z,130.78
2023-04-18T08:00:22.463Z,307.42
2023-04-18T08:01:25.834Z,289.5
2023-04-18T08:02:28.954Z,251.1
2023-04-18T08:03:32.402Z,240.86
2023-04-18T08:04:35.600Z,243.42
2023-04-18T08:05:38.853Z,286.94
2023-04-18T08:06:42.147Z,271.58
2023-04-18T08:07:45.452Z,281.82
2023-04-18T08:08:48.808Z,210.14
2023-04-18T08:09:52.102Z,243.42
2023-04-18T08:10:54.444Z,176.86
2023-04-18T08:11:57.662Z,146.14
2023-04-18T08:13:01.029Z,-294.18
2023-04-18T08:14:04.185Z,-273.7
2023-04-18T08:15:07.507Z,294.62
2023-04-18T08:16:10.774Z,71.9
2023-04-18T08:17:14.091Z,-319.79
2023-04-18T08:18:16.400Z,-299.31
2023-04-18T08:19:18.682Z,-245.55
2023-04-18T08:20:21.005Z,-212.27
2023-04-18T08:21:23.323Z,-94.51
2023-04-18T08:22:26.601Z,-79.15
2023-04-18T08:23:29.901Z,-79.15
2023-04-18T08:24:33.185Z,-56.11
2023-04-18T08:25:36.475Z,-99.63
2023-04-18T08:26:39.775Z,-99.63
2023-04-18T08:27:43.083Z,-114.99
2023-04-18T08:28:46.352Z,-102.19
2023-04-18T08:29:49.733Z,-76.59
2023-04-18T08:30:52.966Z,-53.55
2023-04-18T08:31:56.469Z,0
2023-04-18T08:32:59.825Z,10.46
2023-04-18T08:34:03.017Z,53.98
2023-04-18T08:35:05.320Z,-40.75
2023-04-18T08:36:08.597Z,181.89
2023-04-18T08:37:11.890Z,46.3
2023-04-18T08:38:15.194Z,284.38
2023-04-18T08:39:18.481Z,164.06
2023-04-18T08:40:21.774Z,158.94
2023-04-18T08:41:25.061Z,153.82
2023-04-18T08:42:27.384Z,141.02
2023-04-18T08:43:29.677Z,164.06
2023-04-18T08:44:31.996Z,107.74
2023-04-18T08:45:34.301Z,117.98
2023-04-18T08:46:37.616Z,176.86
2023-04-18T08:47:40.900Z,176.86
2023-04-18T08:48:44.174Z,156.38
2023-04-18T08:49:47.487Z,194.78
2023-04-18T08:50:50.767Z,215.26
2023-04-18T08:51:54.058Z,217.82
2023-04-18T08:52:57.379Z,192.22
2023-04-18T08:54:00.673Z,205.02
2023-04-18T08:55:03.973Z,240.86
2023-04-18T08:56:07.220Z,215.26
2023-04-18T08:57:10.634Z,228.06
2023-04-18T08:58:13.804Z,245.98
2023-04-18T08:59:16.241Z,261.34
2023-04-18T09:00:19.499Z,228.06
2023-04-18T09:01:22.699Z,238.3
2023-04-18T09:02:25.995Z,238.3
2023-04-18T09:03:29.288Z,261.34
2023-04-18T09:04:32.577Z,235.74
2023-04-18T09:05:35.866Z,248.54
2023-04-18T09:06:38.173Z,245.98
2023-04-18T09:07:40.477Z,286.94
2023-04-18T09:08:43.772Z,240.86
2023-04-18T09:09:47.061Z,261.34
2023-04-18T09:10:50.363Z,276.7
2023-04-18T09:11:53.654Z,225.5
2023-04-18T09:12:56.939Z,215.26
2023-04-18T09:14:00.232Z,228.06
2023-04-18T09:15:03.535Z,217.82
2023-04-18T09:16:06.818Z,292.06
2023-04-18T09:17:10.120Z,269.02
2023-04-18T09:18:13.402Z,266.46
2023-04-18T09:19:16.703Z,299.74
2023-04-18T09:20:19.985Z,297.18
2023-04-18T09:21:22.358Z,253.66
2023-04-18T09:22:25.599Z,243.42
2023-04-18T09:23:28.878Z,269.02
2023-04-18T09:24:32.184Z,240.86
2023-04-18T09:25:35.471Z,261.34
2023-04-18T09:26:38.779Z,240.86
2023-04-18T09:27:42.067Z,251.1
2023-04-18T09:28:44.402Z,253.66
2023-04-18T09:29:46.666Z,197.34
2023-04-18T09:30:49.032Z,212.7
2023-04-18T09:31:51.383Z,230.62
2023-04-18T09:32:53.711Z,220.38
2023-04-18T09:33:55.919Z,269.02
2023-04-18T09:34:59.603Z,286.94
2023-04-18T09:36:02.848Z,284.38
2023-04-18T09:37:06.144Z,271.58
2023-04-18T09:38:09.442Z,258.78
2023-04-18T09:39:12.738Z,266.46
2023-04-18T09:40:16.013Z,245.98
2023-04-18T09:41:19.327Z,266.46
2023-04-18T09:42:22.615Z,286.94
2023-04-18T09:43:25.921Z,289.5
2023-04-18T09:44:29.186Z,266.46
2023-04-18T09:45:32.485Z,284.38
2023-04-18T09:46:35.781Z,286.94
2023-04-18T09:47:38.074Z,284.38
2023-04-18T09:48:41.387Z,276.7
2023-04-18T09:49:44.676Z,297.18
2023-04-18T09:50:47.964Z,256.22
2023-04-18T09:51:51.257Z,274.14
2023-04-18T09:52:54.548Z,276.7
2023-04-18T09:53:57.819Z,309.98
2023-04-18T09:55:00.152Z,276.7
2023-04-18T09:56:02.470Z,322.78
2023-04-18T09:57:04.779Z,248.54
2023-04-18T09:58:07.090Z,294.62
2023-04-18T09:59:10.395Z,253.66
2023-04-18T10:00:13.728Z,281.82
2023-04-18T10:01:16.954Z,320.22
2023-04-18T10:02:20.270Z,269.02
2023-04-18T10:03:23.684Z,284.38
2023-04-18T10:04:26.858Z,312.54
2023-04-18T10:05:30.108Z,253.66
2023-04-18T10:06:33.406Z,263.9
2023-04-18T10:07:36.693Z,253.66
2023-04-18T10:08:39.996Z,292.06
2023-04-18T10:09:43.276Z,248.54
2023-04-18T10:10:46.582Z,281.82
2023-04-18T10:11:48.905Z,253.66
2023-04-18T10:12:52.162Z,233.18
2023-04-18T10:13:55.466Z,220.38
2023-04-18T10:14:58.770Z,276.7
2023-04-18T10:16:02.044Z,215.26
2023-04-18T10:17:05.407Z,276.7
2023-04-18T10:18:08.808Z,286.94
2023-04-18T10:19:10.948Z,269.02
2023-04-18T10:20:13.244Z,286.94
2023-04-18T10:21:15.551Z,261.34
2023-04-18T10:22:17.863Z,276.7
2023-04-18T10:23:21.156Z,304.86
2023-04-18T10:24:24.465Z,263.9
2023-04-18T10:25:27.753Z,189.66
2023-04-18T10:26:31.037Z,248.54
2023-04-18T10:27:34.325Z,261.34
2023-04-18T10:28:37.638Z,299.74
2023-04-18T10:29:40.947Z,284.38
2023-04-18T10:30:44.209Z,312.54
2023-04-18T10:31:47.514Z,320.22
2023-04-18T10:32:50.788Z,269.02
2023-04-18T10:33:54.089Z,245.98
2023-04-18T10:34:57.400Z,304.86
2023-04-18T10:36:00.171Z,263.9
2023-04-18T10:37:03.466Z,261.34
2023-04-18T10:38:06.785Z,258.78
2023-04-18T10:39:10.052Z,245.98
2023-04-18T10:40:13.359Z,263.9
2023-04-18T10:41:16.637Z,274.14
2023-04-18T10:42:20.147Z,276.7
2023-04-18T10:43:22.397Z,274.14
2023-04-18T10:44:24.728Z,261.34
2023-04-18T10:45:26.874Z,299.74
2023-04-18T10:46:29.149Z,289.5
2023-04-18T10:47:32.461Z,279.26
2023-04-18T10:48:35.750Z,292.06
2023-04-18T10:49:39.034Z,271.58
2023-04-18T10:50:42.322Z,317.66
2023-04-18T10:51:45.636Z,276.7
2023-04-18T10:52:48.923Z,-327.46
2023-04-18T10:53:52.225Z,-306.98
2023-04-18T10:54:55.537Z,309.98
2023-04-18T10:55:58.997Z,320.22
2023-04-18T10:57:02.239Z,322.78
2023-04-18T10:58:05.389Z,294.62
2023-04-18T10:59:08.688Z,251.1
2023-04-18T11:00:10.987Z,279.26
2023-04-18T11:01:14.373Z,284.38
2023-04-18T11:02:17.598Z,304.86
2023-04-18T11:03:20.894Z,320.22
2023-04-18T11:04:24.299Z,284.38
2023-04-18T11:05:27.447Z,294.62
2023-04-18T11:06:30.722Z,289.5
2023-04-18T11:07:33.049Z,271.58
2023-04-18T11:08:35.364Z,245.98
2023-04-18T11:09:37.667Z,225.5
2023-04-18T11:10:39.997Z,-322.34
2023-04-18T11:11:43.262Z,-319.78
2023-04-18T11:12:46.563Z,312.54
2023-04-18T11:13:48.867Z,269.02
2023-04-18T11:14:52.389Z,302.3
2023-04-18T11:15:55.449Z,317.66
2023-04-18T11:16:58.930Z,307.42
2023-04-18T11:18:02.035Z,315.1
2023-04-18T11:19:05.330Z,-319.78
2023-04-18T11:20:08.617Z,-296.74
2023-04-18T11:21:11.916Z,320.22
2023-04-18T11:22:15.209Z,-306.98
2023-04-18T11:23:18.500Z,320.22
2023-04-18T11:24:21.810Z,245.98
2023-04-18T11:25:25.144Z,297.18
2023-04-18T11:26:28.500Z,304.86
2023-04-18T11:27:30.857Z,-306.98
2023-04-18T11:28:33.974Z,304.86
2023-04-18T11:29:37.424Z,0
2023-04-18T11:30:40.652Z,286.94
2023-04-18T11:31:42.883Z,243.42
2023-04-18T11:32:45.199Z,279.26
2023-04-18T11:33:47.492Z,299.74
2023-04-18T11:34:49.793Z,-324.9
2023-04-18T11:35:53.101Z,263.9
2023-04-18T11:36:56.410Z,-304.42
2023-04-18T11:37:59.675Z,292.06
2023-04-18T11:39:03.394Z,309.98
2023-04-18T11:40:06.715Z,294.62
2023-04-18T11:41:10.079Z,292.06
2023-04-18T11:42:13.334Z,276.7
2023-04-18T11:43:16.799Z,307.42
2023-04-18T11:44:19.869Z,320.22
2023-04-18T11:45:23.172Z,245.98
2023-04-18T11:46:26.470Z,276.7
2023-04-18T11:47:29.754Z,315.1
2023-04-18T11:48:32.059Z,294.62
2023-04-18T11:49:35.341Z,309.98
2023-04-18T11:50:38.637Z,292.06
2023-04-18T11:51:41.932Z,-322.34
2023-04-18T11:52:45.221Z,302.3
2023-04-18T11:53:48.517Z,258.78
2023-04-18T11:54:51.811Z,312.54
2023-04-18T11:55:54.124Z,317.66
2023-04-18T11:56:56.419Z,302.3
2023-04-18T11:57:58.744Z,307.42
2023-04-18T11:59:01.039Z,297.18
2023-04-18T12:00:04.340Z,-301.86
2023-04-18T12:01:07.631Z,-253.22
2023-04-18T12:02:10.928Z,-258.34
2023-04-18T12:03:14.210Z,-222.5
2023-04-18T12:04:17.503Z,-255.78
2023-04-18T12:05:20.794Z,-306.98
2023-04-18T12:06:24.091Z,-263.46
2023-04-18T12:07:27.363Z,-242.98
2023-04-18T12:08:30.655Z,-248.1
2023-04-18T12:09:33.949Z,-263.46
2023-04-18T12:10:37.273Z,-327.46
2023-04-18T12:11:40.542Z,-314.66
2023-04-18T12:12:42.867Z,-278.82
2023-04-18T12:13:46.124Z,-268.58
2023-04-18T12:14:49.492Z,320.22
2023-04-18T12:15:52.717Z,-309.54
2023-04-18T12:16:56.010Z,-268.58
2023-04-18T12:17:59.318Z,-289.06
2023-04-18T12:19:02.598Z,-291.62
2023-04-18T12:20:04.923Z,-312.1
2023-04-18T12:21:07.214Z,286.94
2023-04-18T12:22:10.509Z,0
2023-04-18T12:23:12.816Z,284.38
2023-04-18T12:24:15.139Z,256.22
2023-04-18T12:25:18.413Z,297.18
2023-04-18T12:26:21.733Z,294.62
2023-04-18T12:27:25.016Z,-281.38
2023-04-18T12:28:28.316Z,317.66
2023-04-18T12:29:31.596Z,294.62
2023-04-18T12:30:34.886Z,286.94
2023-04-18T12:31:38.175Z,0
2023-04-18T12:32:41.466Z,-312.1
2023-04-18T12:33:44.785Z,-296.74
2023-04-18T12:34:48.078Z,281.82
2023-04-18T12:35:51.347Z,315.1
2023-04-18T12:36:54.632Z,317.66
2023-04-18T12:37:56.950Z,325.34
2023-04-18T12:39:00.233Z,315.1
2023-04-18T12:40:03.847Z,258.78
2023-04-18T12:41:07.121Z,-324.9
2023-04-18T12:42:10.422Z,269.02
2023-04-18T12:43:13.715Z,-309.54
2023-04-18T12:44:17.039Z,-263.46
2023-04-18T12:45:19.327Z,-242.98
2023-04-18T12:46:21.641Z,-250.66
2023-04-18T12:47:23.948Z,-263.46
2023-04-18T12:48:26.252Z,-278.82
2023-04-18T12:49:29.559Z,-283.94
2023-04-18T12:50:32.823Z,322.78
2023-04-18T12:51:36.124Z,-322.34
2023-04-18T12:52:39.408Z,-309.54
2023-04-18T12:53:42.706Z,-296.74
2023-04-18T12:54:45.998Z,325.34
2023-04-18T12:55:49.299Z,304.86
2023-04-18T12:56:52.570Z,-314.66
2023-04-18T12:57:55.878Z,312.54
2023-04-18T12:58:59.161Z,-314.66
2023-04-18T13:00:02.461Z,317.66
2023-04-18T13:01:05.745Z,322.78
2023-04-18T13:02:08.047Z,281.82
2023-04-18T13:03:11.346Z,-312.1
2023-04-18T13:04:14.644Z,-327.46
2023-04-18T13:05:17.942Z,317.66
2023-04-18T13:06:21.220Z,-327.46
2023-04-18T13:07:24.526Z,-276.26
2023-04-18T13:08:27.810Z,-296.74
2023-04-18T13:09:30.125Z,-327.46
2023-04-18T13:10:32.453Z,-312.1